Terminal Aerodrome Forecast
Issued by NWS Wilmington, OH

Current Version | Previous Version | Text Only | Print | Product List | Glossary Off
Versions: 1 2 3 4 5 6 7 8 9 10 11 12 13 14 15 16 17 18 19 20 21

000
FTUS41 KILN 072300
TAFDAY
TAF
KDAY 072325Z 0800/0824 21010KT P6SM VCSH BKN040
     FM081200 21012G20KT 5SM -SHRA BR VCTS OVC025CB
     FM081500 22012G24KT P6SM BKN035
     FM081800 24014G26KT P6SM VCTS BKN035CB
     FM082100 24014G26KT P6SM VCSH BKN040=

USA.gov is the U.S. government's official web portal to all federal, state and local government web resources and services.